createdAt,value
2018-10-04T00:00:32.732Z,11.50
2018-10-04T00:03:01.098Z,6.30
2018-10-04T00:05:29.418Z,8.30
2018-10-04T00:07:57.746Z,9.03
2018-10-04T00:10:26.039Z,8.90
2018-10-04T00:12:54.390Z,6.63
2018-10-04T00:15:22.860Z,9.60
2018-10-04T00:17:51.166Z,9.90
2018-10-04T00:20:19.511Z,10.27
2018-10-04T00:22:47.854Z,10.33
2018-10-04T00:25:16.442Z,7.07
2018-10-04T00:27:44.793Z,9.03
2018-10-04T00:30:13.120Z,9.23
2018-10-04T00:32:41.479Z,8.77
2018-10-04T00:35:09.842Z,8.00
2018-10-04T00:37:38.167Z,10.80
2018-10-04T00:40:06.894Z,7.00
2018-10-04T00:42:35.242Z,8.07
2018-10-04T00:45:03.632Z,10.57
2018-10-04T00:47:31.927Z,9.17
2018-10-04T00:50:00.242Z,10.90
2018-10-04T00:52:28.563Z,7.40
2018-10-04T00:54:56.887Z,10.03
2018-10-04T00:57:25.204Z,9.90
2018-10-04T00:59:53.531Z,10.77
2018-10-04T01:02:21.892Z,8.30
2018-10-04T01:04:50.328Z,9.77
2018-10-04T01:07:18.640Z,8.73
2018-10-04T01:09:49.899Z,8.80
2018-10-04T01:12:18.191Z,9.43
2018-10-04T01:14:46.614Z,8.47
2018-10-04T01:17:15.012Z,7.30
2018-10-04T01:19:43.314Z,7.40
2018-10-04T01:22:11.658Z,6.97
2018-10-04T01:24:40.005Z,7.47
2018-10-04T01:27:08.295Z,7.60
2018-10-04T01:29:36.598Z,7.93
2018-10-04T01:32:04.923Z,8.50
2018-10-04T01:34:33.274Z,7.93
2018-10-04T01:37:01.599Z,7.93
2018-10-04T01:39:29.938Z,9.40
2018-10-04T01:41:58.269Z,7.77
2018-10-04T01:44:26.598Z,9.53
2018-10-04T01:46:54.926Z,11.17
2018-10-04T01:49:23.226Z,7.03
2018-10-04T01:51:51.583Z,10.97
2018-10-04T01:54:19.934Z,10.60
2018-10-04T01:56:48.480Z,10.20
2018-10-04T01:59:16.943Z,9.67
2018-10-04T02:01:45.551Z,10.00
2018-10-04T02:04:14.023Z,9.20
2018-10-04T02:06:42.419Z,12.47
2018-10-04T02:09:10.723Z,11.90
2018-10-04T02:11:39.071Z,10.97
2018-10-04T02:14:07.406Z,12.17
2018-10-04T02:16:35.850Z,11.30
2018-10-04T02:19:04.166Z,15.13
2018-10-04T02:21:32.994Z,13.17
2018-10-04T02:24:01.338Z,12.07
2018-10-04T02:26:29.691Z,16.43
2018-10-04T02:28:58.031Z,12.87
2018-10-04T02:31:26.381Z,14.87
2018-10-04T02:33:54.681Z,13.10
2018-10-04T02:36:22.994Z,12.50
2018-10-04T02:38:51.358Z,14.13
2018-10-04T02:41:19.659Z,18.97
2018-10-04T02:43:48.036Z,14.83
2018-10-04T02:46:16.438Z,12.13
2018-10-04T02:48:44.800Z,17.07
2018-10-04T02:51:13.163Z,13.00
2018-10-04T02:53:41.473Z,15.80
2018-10-04T02:56:15.123Z,14.63
2018-10-04T02:58:43.452Z,12.67
2018-10-04T03:01:11.779Z,10.40
2018-10-04T03:03:40.136Z,14.67
2018-10-04T03:06:13.466Z,14.93
2018-10-04T03:08:42.160Z,9.27
2018-10-04T03:11:13.612Z,10.87
2018-10-04T03:13:42.072Z,19.63
2018-10-04T03:16:10.611Z,15.33
2018-10-04T03:18:39.068Z,11.70
2018-10-04T03:21:07.593Z,10.97
2018-10-04T03:23:35.958Z,14.87
2018-10-04T03:26:04.241Z,12.83
2018-10-04T03:28:32.708Z,8.77
2018-10-04T03:31:01.105Z,11.63
2018-10-04T03:33:46.911Z,14.83
2018-10-04T03:36:16.683Z,19.53
2018-10-04T03:38:45.266Z,16.17
2018-10-04T03:41:13.838Z,15.13
2018-10-04T03:43:42.263Z,12.37
2018-10-04T03:46:10.888Z,13.37
2018-10-04T03:48:40.005Z,14.57
2018-10-04T03:51:08.846Z,17.50
2018-10-04T03:53:37.842Z,12.43
2018-10-04T03:56:07.590Z,19.65
2018-10-04T03:58:36.006Z,16.07
2018-10-04T04:01:04.342Z,15.90
2018-10-04T04:03:32.773Z,10.97
2018-10-04T04:06:01.155Z,17.63
2018-10-04T04:08:29.443Z,18.23
2018-10-04T04:10:57.760Z,16.00
2018-10-04T04:13:26.067Z,14.07
2018-10-04T04:15:54.455Z,14.77
2018-10-04T04:18:22.752Z,14.30
2018-10-04T04:20:51.090Z,14.40
2018-10-04T04:23:19.755Z,20.10
2018-10-04T04:25:48.178Z,16.07
2018-10-04T04:28:16.568Z,16.07
2018-10-04T04:30:44.867Z,16.43
2018-10-04T04:33:13.301Z,13.93
2018-10-04T04:35:41.646Z,13.50
2018-10-04T04:38:09.984Z,15.40
2018-10-04T04:40:38.305Z,11.10
2018-10-04T04:43:06.638Z,11.47
2018-10-04T04:45:34.972Z,13.47
2018-10-04T04:48:03.357Z,14.17
2018-10-04T04:50:31.677Z,20.43
2018-10-04T04:52:59.971Z,13.67
2018-10-04T04:55:29.754Z,11.50
2018-10-04T04:57:58.829Z,16.90
2018-10-04T05:00:28.242Z,14.40
2018-10-04T05:02:56.833Z,13.57
2018-10-04T05:05:25.677Z,15.43
2018-10-04T05:07:56.073Z,14.33
2018-10-04T05:10:24.932Z,9.97
2018-10-04T05:12:53.930Z,14.13
2018-10-04T05:15:22.245Z,12.97
2018-10-04T05:17:50.698Z,9.77
2018-10-04T05:20:19.038Z,13.13
2018-10-04T05:22:47.429Z,14.23
2018-10-04T05:25:15.787Z,17.37
2018-10-04T05:27:45.235Z,16.43
2018-10-04T05:30:26.828Z,11.37
2018-10-04T05:32:55.986Z,12.60
2018-10-04T05:35:24.463Z,8.83
2018-10-04T05:38:13.498Z,16.60
2018-10-04T05:40:41.830Z,16.50
2018-10-04T05:43:10.165Z,14.00
2018-10-04T05:45:38.449Z,9.73
2018-10-04T05:48:06.982Z,9.87
2018-10-04T05:50:35.293Z,11.33
2018-10-04T05:53:03.675Z,13.00
2018-10-04T05:55:32.090Z,13.03
2018-10-04T05:58:00.408Z,12.67
2018-10-04T06:00:37.719Z,10.83
2018-10-04T06:03:06.096Z,11.13
2018-10-04T06:05:34.456Z,13.23
2018-10-04T06:08:03.210Z,10.90
2018-10-04T06:10:32.032Z,15.40
2018-10-04T06:13:00.387Z,11.83
2018-10-04T06:15:28.808Z,12.13
2018-10-04T06:17:57.163Z,13.60
2018-10-04T06:20:26.693Z,14.17
2018-10-04T06:22:55.009Z,13.77
2018-10-04T06:25:23.318Z,10.53
2018-10-04T06:27:51.654Z,13.30
2018-10-04T06:30:20.080Z,10.17
2018-10-04T06:32:48.392Z,12.63
2018-10-04T06:35:16.729Z,17.77
2018-10-04T06:37:45.166Z,14.50
2018-10-04T06:40:13.528Z,11.23
2018-10-04T06:42:42.115Z,13.03
2018-10-04T06:45:10.857Z,12.37
2018-10-04T06:47:39.246Z,12.63
2018-10-04T06:50:07.933Z,17.73
2018-10-04T06:52:36.301Z,15.60
2018-10-04T06:55:04.610Z,11.93
2018-10-04T06:57:33.027Z,12.37
2018-10-04T07:00:01.424Z,10.67
2018-10-04T07:02:29.777Z,15.97
2018-10-04T07:04:58.088Z,11.27
2018-10-04T07:07:26.451Z,14.13
2018-10-04T07:09:55.074Z,12.63
2018-10-04T07:12:23.392Z,10.47
2018-10-04T07:14:51.682Z,9.30
2018-10-04T07:17:20.022Z,16.07
2018-10-04T07:19:48.513Z,12.93
2018-10-04T07:22:16.830Z,15.63
2018-10-04T07:24:45.174Z,9.63
2018-10-04T07:27:13.466Z,12.07
2018-10-04T07:29:41.816Z,15.23
2018-10-04T07:32:10.125Z,9.90
2018-10-04T07:34:38.446Z,15.03
2018-10-04T07:37:06.785Z,14.70
2018-10-04T07:39:35.116Z,13.40
2018-10-04T07:42:03.490Z,11.10
2018-10-04T07:44:31.873Z,14.10
2018-10-04T07:47:00.253Z,14.00
2018-10-04T07:49:28.593Z,14.77
2018-10-04T07:51:56.906Z,13.33
2018-10-04T07:54:25.289Z,11.57
2018-10-04T07:56:53.583Z,13.03
2018-10-04T07:59:22.030Z,9.93
2018-10-04T08:01:50.388Z,14.07
2018-10-04T08:04:18.746Z,11.50
2018-10-04T08:06:47.129Z,8.20
2018-10-04T08:09:15.423Z,12.17
2018-10-04T08:11:43.744Z,9.57
2018-10-04T08:14:12.088Z,10.50
2018-10-04T08:16:40.399Z,12.87
2018-10-04T08:19:08.831Z,15.60
2018-10-04T08:21:37.151Z,16.47
2018-10-04T08:24:05.525Z,14.67
2018-10-04T08:26:34.016Z,14.30
2018-10-04T08:29:02.394Z,13.40
2018-10-04T08:31:30.711Z,18.23
2018-10-04T08:33:59.051Z,17.67
2018-10-04T08:36:27.375Z,14.47
2018-10-04T08:38:55.727Z,11.47
2018-10-04T08:41:24.037Z,10.53
2018-10-04T08:43:52.371Z,15.13
2018-10-04T08:46:20.663Z,17.50
2018-10-04T08:48:49.010Z,15.13
2018-10-04T08:51:17.371Z,13.83
2018-10-04T08:53:45.699Z,18.70
2018-10-04T08:56:14.124Z,12.33
2018-10-04T08:58:42.941Z,12.80
2018-10-04T09:01:11.457Z,12.53
2018-10-04T09:03:39.760Z,14.27
2018-10-04T09:06:08.131Z,14.33
2018-10-04T09:08:36.808Z,13.10
2018-10-04T09:11:05.150Z,9.37
2018-10-04T09:13:33.466Z,11.77
2018-10-04T09:16:01.819Z,12.43
2018-10-04T09:18:30.175Z,9.73
2018-10-04T09:20:58.569Z,10.83
2018-10-04T09:23:29.975Z,10.53
2018-10-04T09:25:58.498Z,12.13
2018-10-04T09:28:26.807Z,13.07
2018-10-04T09:31:00.512Z,14.33
2018-10-04T09:33:28.834Z,13.63
2018-10-04T09:35:57.256Z,11.97
2018-10-04T09:38:25.638Z,13.17
2018-10-04T09:40:54.394Z,13.43
2018-10-04T09:43:22.851Z,8.77
2018-10-04T09:45:51.664Z,11.77
2018-10-04T09:48:19.993Z,11.90
2018-10-04T09:50:48.258Z,12.23
2018-10-04T09:53:16.713Z,13.50
2018-10-04T09:55:50.468Z,17.07
2018-10-04T09:58:18.886Z,14.57
2018-10-04T10:00:52.462Z,11.47
2018-10-04T10:03:21.044Z,14.63
2018-10-04T10:05:53.664Z,13.30
2018-10-04T10:08:25.983Z,13.00
2018-10-04T10:10:54.331Z,15.57
2018-10-04T10:13:22.641Z,12.57
2018-10-04T10:15:51.021Z,13.27
2018-10-04T10:18:19.326Z,12.00
2018-10-04T10:20:51.281Z,11.50
2018-10-04T10:23:19.679Z,11.50
2018-10-04T10:25:48.071Z,16.80
2018-10-04T10:28:16.406Z,10.43
2018-10-04T10:30:44.696Z,13.90
2018-10-04T10:33:13.100Z,11.57
2018-10-04T10:35:41.534Z,13.33
2018-10-04T10:38:09.818Z,12.33
2018-10-04T10:40:42.750Z,14.57
2018-10-04T10:43:11.083Z,12.63
2018-10-04T10:45:39.471Z,14.70
2018-10-04T10:48:08.002Z,13.17
2018-10-04T10:50:36.330Z,13.37
2018-10-04T10:53:04.720Z,14.20
2018-10-04T10:55:33.147Z,17.60
2018-10-04T10:58:01.517Z,11.57
2018-10-04T11:00:29.921Z,12.00
2018-10-04T11:02:58.342Z,14.43
2018-10-04T11:05:26.791Z,15.73
2018-10-04T11:07:55.102Z,15.93
2018-10-04T11:10:23.451Z,14.57
2018-10-04T11:12:51.841Z,12.33
2018-10-04T11:15:20.262Z,14.40
2018-10-04T11:17:48.637Z,10.63
2018-10-04T11:20:17.028Z,13.67
2018-10-04T11:22:45.417Z,10.03
2018-10-04T11:25:14.854Z,9.73
2018-10-04T11:27:43.246Z,11.03
2018-10-04T11:30:22.000Z,9.73
2018-10-04T11:32:50.404Z,11.77
2018-10-04T11:35:18.823Z,9.63
2018-10-04T11:37:47.184Z,12.63
2018-10-04T11:40:15.651Z,9.97
2018-10-04T11:42:46.382Z,14.27
2018-10-04T11:45:31.465Z,14.83
2018-10-04T11:47:59.985Z,11.60
2018-10-04T11:50:29.178Z,11.17
2018-10-04T11:52:57.529Z,7.17
2018-10-04T11:55:25.861Z,13.03
2018-10-04T11:57:54.251Z,12.60
2018-10-04T12:00:23.997Z,12.53
2018-10-04T12:02:53.615Z,16.83
2018-10-04T12:08:31.579Z,10.13
2018-10-04T12:10:59.883Z,12.73
2018-10-04T12:13:28.312Z,14.00
2018-10-04T12:15:56.614Z,13.63
2018-10-04T12:18:24.932Z,10.07
2018-10-04T12:20:53.277Z,10.90
2018-10-04T12:23:21.582Z,9.60
2018-10-04T12:25:49.933Z,10.37
2018-10-04T12:28:18.276Z,13.63
2018-10-04T12:30:46.618Z,12.93
2018-10-04T12:33:14.970Z,14.87
2018-10-04T12:35:43.296Z,11.20
2018-10-04T12:38:11.695Z,10.77
2018-10-04T12:40:40.154Z,13.17
2018-10-04T12:43:08.502Z,21.70
2018-10-04T12:45:36.890Z,10.60
2018-10-04T12:48:05.263Z,10.57
2018-10-04T12:50:33.727Z,12.27
2018-10-04T12:53:02.102Z,11.63
2018-10-04T12:55:30.516Z,9.23
2018-10-04T12:57:58.859Z,13.27
2018-10-04T13:00:27.214Z,28.17
2018-10-04T13:02:55.570Z,26.00
2018-10-04T13:05:23.884Z,15.27
2018-10-04T13:07:52.422Z,13.20
2018-10-04T13:10:20.772Z,10.43
2018-10-04T13:12:49.188Z,11.53
2018-10-04T13:15:17.524Z,8.63
2018-10-04T13:17:45.835Z,14.40
2018-10-04T13:20:14.203Z,9.87
2018-10-04T13:22:42.525Z,9.43
2018-10-04T13:25:10.916Z,16.83
2018-10-04T13:27:39.340Z,9.30
2018-10-04T13:30:08.164Z,11.40
2018-10-04T13:32:36.530Z,15.77
2018-10-04T13:35:04.907Z,11.30
2018-10-04T13:37:33.264Z,7.53
2018-10-04T13:40:01.747Z,9.70
2018-10-04T13:42:30.080Z,8.30
2018-10-04T13:44:58.469Z,8.10
2018-10-04T13:47:26.775Z,11.83
2018-10-04T13:49:55.116Z,9.90
2018-10-04T13:52:23.564Z,12.53
2018-10-04T13:54:51.944Z,11.27
2018-10-04T13:57:20.445Z,11.10
2018-10-04T13:59:48.963Z,12.27
2018-10-04T14:02:17.363Z,8.50
2018-10-04T14:04:45.711Z,12.43
2018-10-04T14:07:14.107Z,10.73
2018-10-04T14:09:42.736Z,9.77
2018-10-04T14:12:11.043Z,9.40
2018-10-04T14:14:39.376Z,7.30
2018-10-04T14:17:07.745Z,10.60
2018-10-04T14:19:36.121Z,7.63
2018-10-04T14:22:04.622Z,7.30
2018-10-04T14:24:32.979Z,9.37
2018-10-04T14:27:01.303Z,9.23
2018-10-04T14:29:29.696Z,6.93
2018-10-04T14:31:58.070Z,9.03
2018-10-04T14:34:26.961Z,8.43
2018-10-04T14:36:55.330Z,10.23
2018-10-04T14:39:23.775Z,7.93
2018-10-04T14:41:52.445Z,8.97
2018-10-04T14:44:20.836Z,10.67
2018-10-04T14:46:49.184Z,6.77
2018-10-04T14:49:17.568Z,7.80
2018-10-04T14:51:45.991Z,8.63
2018-10-04T14:54:14.748Z,8.20
2018-10-04T14:56:43.212Z,8.03
2018-10-04T14:59:12.079Z,10.43
2018-10-04T15:01:40.748Z,8.53
2018-10-04T15:04:09.191Z,5.67
2018-10-04T15:06:37.982Z,7.93
2018-10-04T15:09:08.014Z,8.63
2018-10-04T15:11:36.635Z,11.10
2018-10-04T15:14:05.477Z,7.40
2018-10-04T15:16:33.808Z,5.60
2018-10-04T15:19:02.146Z,9.03
2018-10-04T15:21:30.470Z,8.80
2018-10-04T15:23:59.383Z,9.13
2018-10-04T15:26:28.222Z,7.87
2018-10-04T15:28:56.854Z,7.53
2018-10-04T15:31:25.711Z,8.87
2018-10-04T15:33:54.083Z,7.73
2018-10-04T15:36:22.648Z,6.93
2018-10-04T15:38:51.206Z,8.53
2018-10-04T15:41:19.774Z,7.17
2018-10-04T15:43:48.392Z,6.93
2018-10-04T15:46:17.153Z,6.27
2018-10-04T15:48:46.066Z,7.83
2018-10-04T15:51:14.629Z,8.47
2018-10-04T15:53:43.191Z,12.83
2018-10-04T15:56:11.679Z,15.60
2018-10-04T15:58:40.272Z,12.30
2018-10-04T16:01:08.845Z,20.17
2018-10-04T16:03:37.246Z,18.53
2018-10-04T16:06:06.025Z,13.40
2018-10-04T16:08:34.696Z,11.07
2018-10-04T16:11:03.272Z,7.07
2018-10-04T16:13:31.873Z,6.03
2018-10-04T16:16:00.458Z,6.43
2018-10-04T16:18:28.939Z,4.50
2018-10-04T16:20:57.263Z,6.10
2018-10-04T16:23:25.921Z,6.87
2018-10-04T16:25:54.858Z,7.73
2018-10-04T16:28:23.326Z,7.60
2018-10-04T16:30:52.266Z,6.73
2018-10-04T16:33:20.803Z,8.57
2018-10-04T16:35:49.386Z,9.93
2018-10-04T16:38:19.124Z,6.70
2018-10-04T16:40:47.704Z,7.07
2018-10-04T16:43:16.138Z,8.00
2018-10-04T16:45:44.644Z,9.30
2018-10-04T16:48:13.115Z,9.83
2018-10-04T16:50:41.626Z,7.70
2018-10-04T16:53:09.940Z,6.33
2018-10-04T16:55:38.262Z,7.17
2018-10-04T16:58:06.731Z,9.50
2018-10-04T17:00:35.074Z,6.43
2018-10-04T17:03:04.766Z,8.07
2018-10-04T17:05:33.307Z,10.17
2018-10-04T17:08:01.640Z,10.67
2018-10-04T17:10:30.028Z,7.53
2018-10-04T17:12:58.351Z,11.03
2018-10-04T17:15:26.680Z,9.23
2018-10-04T17:17:55.170Z,6.87
2018-10-04T17:20:23.476Z,8.03
2018-10-04T17:22:51.915Z,10.00
2018-10-04T17:25:20.249Z,5.87
2018-10-04T17:27:48.563Z,8.27
2018-10-04T17:30:16.878Z,9.40
2018-10-04T17:32:45.296Z,8.10
2018-10-04T17:35:13.757Z,7.50
2018-10-04T17:37:42.937Z,9.07
2018-10-04T17:40:11.799Z,8.57
2018-10-04T17:42:40.382Z,6.53
2018-10-04T17:45:09.124Z,8.30
2018-10-04T17:47:37.544Z,6.27
2018-10-04T17:50:06.168Z,9.20
2018-10-04T17:52:36.604Z,8.47
2018-10-04T17:55:05.299Z,7.03
2018-10-04T17:57:37.873Z,7.20
2018-10-04T18:00:06.676Z,9.03
2018-10-04T18:02:35.062Z,7.73
2018-10-04T18:05:03.470Z,6.60
2018-10-04T18:07:31.764Z,7.47
2018-10-04T18:10:00.130Z,9.10
2018-10-04T18:12:28.884Z,5.30
2018-10-04T18:15:00.473Z,10.83
2018-10-04T18:17:31.769Z,6.27
2018-10-04T18:20:00.171Z,8.80
2018-10-04T18:22:28.527Z,7.87
2018-10-04T18:24:56.836Z,6.93
2018-10-04T18:27:25.389Z,6.30
2018-10-04T18:29:53.911Z,5.63
2018-10-04T18:32:22.242Z,4.93
2018-10-04T18:34:50.576Z,5.83
2018-10-04T18:37:19.035Z,7.83
2018-10-04T18:39:47.861Z,6.40
2018-10-04T18:42:17.047Z,4.10
2018-10-04T18:44:45.330Z,7.37
2018-10-04T18:47:13.881Z,6.93
2018-10-04T18:49:43.993Z,8.33
2018-10-04T18:52:13.665Z,6.10
2018-10-04T18:54:42.359Z,6.37
2018-10-04T18:57:10.973Z,7.17
2018-10-04T18:59:47.319Z,6.90
2018-10-04T19:02:15.923Z,7.43
2018-10-04T19:04:44.642Z,7.30
2018-10-04T19:07:13.323Z,8.00
2018-10-04T19:09:41.760Z,5.67
2018-10-04T19:12:10.177Z,5.13
2018-10-04T19:14:38.596Z,6.10
2018-10-04T19:17:07.178Z,7.50
2018-10-04T19:19:35.799Z,6.37
2018-10-04T19:22:04.301Z,8.17
2018-10-04T19:24:32.680Z,7.23
2018-10-04T19:27:01.148Z,6.07
2018-10-04T19:29:30.024Z,13.63
2018-10-04T19:31:58.539Z,6.90
2018-10-04T19:34:26.868Z,7.07
2018-10-04T19:36:55.192Z,5.83
2018-10-04T19:39:23.764Z,7.87
2018-10-04T19:41:52.664Z,7.07
2018-10-04T19:44:20.980Z,11.13
2018-10-04T19:46:49.488Z,8.20
2018-10-04T19:49:17.907Z,8.70
2018-10-04T19:51:46.225Z,5.67
2018-10-04T19:54:14.588Z,6.80
2018-10-04T19:56:43.083Z,6.37
2018-10-04T19:59:11.535Z,7.10
2018-10-04T20:01:40.165Z,6.10
2018-10-04T20:04:08.534Z,7.80
2018-10-04T20:06:36.895Z,7.20
2018-10-04T20:09:07.594Z,8.50
2018-10-04T20:11:36.075Z,8.63
2018-10-04T20:14:04.424Z,10.83
2018-10-04T20:16:32.877Z,11.93
2018-10-04T20:19:01.237Z,9.57
2018-10-04T20:21:29.590Z,11.10
2018-10-04T20:23:58.357Z,13.10
2018-10-04T20:26:27.175Z,13.67
2018-10-04T20:28:55.534Z,15.97
2018-10-04T20:31:23.894Z,14.43
2018-10-04T20:33:52.293Z,19.63
2018-10-04T20:36:20.620Z,18.43
2018-10-04T20:38:48.994Z,20.70
2018-10-04T20:41:17.501Z,18.70
2018-10-04T20:43:46.080Z,15.20
2018-10-04T20:46:14.391Z,13.10
2018-10-04T20:48:42.692Z,14.80
2018-10-04T20:51:11.083Z,14.57
2018-10-04T20:53:39.440Z,11.27
2018-10-04T20:56:07.958Z,15.67
2018-10-04T20:58:36.341Z,21.03
2018-10-04T21:01:04.699Z,26.90
2018-10-04T21:03:33.084Z,28.73
2018-10-04T21:06:01.423Z,18.43
2018-10-04T21:08:29.787Z,11.60
2018-10-04T21:10:58.108Z,13.03
2018-10-04T21:13:26.437Z,14.93
2018-10-04T21:15:54.759Z,14.37
2018-10-04T21:18:23.307Z,15.87
2018-10-04T21:20:51.679Z,14.63
2018-10-04T21:23:20.190Z,12.67
2018-10-04T21:25:48.408Z,17.97
2018-10-04T21:28:16.811Z,17.50
2018-10-04T21:30:45.182Z,17.20
2018-10-04T21:33:13.501Z,17.03
2018-10-04T21:35:41.979Z,16.53
2018-10-04T21:38:10.327Z,14.20
2018-10-04T21:40:38.776Z,13.73
2018-10-04T21:43:07.212Z,13.80
2018-10-04T21:45:35.564Z,15.50
2018-10-04T21:48:03.932Z,17.87
2018-10-04T21:53:28.097Z,14.57
2018-10-04T21:56:02.878Z,15.13
2018-10-04T22:01:07.158Z,12.27
2018-10-04T22:03:35.689Z,12.87
2018-10-04T22:06:05.310Z,14.57
2018-10-04T22:08:38.609Z,14.17
2018-10-04T22:11:07.485Z,17.53
2018-10-04T22:13:35.895Z,18.83
2018-10-04T22:16:04.469Z,13.73
2018-10-04T22:18:33.081Z,9.67
2018-10-04T22:21:01.672Z,11.33
2018-10-04T22:23:30.212Z,12.27
2018-10-04T22:25:58.730Z,11.53
2018-10-04T22:28:27.279Z,9.30
2018-10-04T22:30:56.001Z,10.03
2018-10-04T22:33:24.506Z,12.67
2018-10-04T22:35:53.014Z,12.20
2018-10-04T22:38:21.444Z,10.00
2018-10-04T22:40:54.138Z,9.67
2018-10-04T22:43:28.255Z,9.37
2018-10-04T22:46:07.346Z,9.70
2018-10-04T22:48:35.935Z,10.37
2018-10-04T22:51:04.572Z,12.07
2018-10-04T22:53:33.142Z,11.53
2018-10-04T22:56:09.610Z,9.87
2018-10-04T22:58:44.249Z,9.90
2018-10-04T23:01:26.370Z,10.40
2018-10-04T23:03:54.848Z,12.00
2018-10-04T23:06:36.006Z,10.20
2018-10-04T23:09:17.248Z,14.13
2018-10-04T23:11:53.748Z,11.80
2018-10-04T23:14:22.328Z,14.27
2018-10-04T23:16:50.890Z,12.07
2018-10-04T23:19:19.534Z,9.67
2018-10-04T23:24:27.918Z,13.47
2018-10-04T23:27:03.453Z,10.57
2018-10-04T23:32:16.685Z,12.00
2018-10-04T23:34:45.131Z,14.53
2018-10-04T23:37:13.682Z,13.87
2018-10-04T23:39:43.082Z,13.83
2018-10-04T23:42:11.729Z,12.47
2018-10-04T23:44:41.172Z,16.33
2018-10-04T23:47:09.807Z,15.70
2018-10-04T23:49:38.438Z,14.30
2018-10-04T23:52:12.252Z,14.07
2018-10-04T23:54:40.954Z,14.30
2018-10-04T23:57:13.094Z,14.93
2018-10-04T23:59:41.944Z,14.70
